| time (UTC) | temp F | wind direction | speed knots | gust knots | rain 1hr in | rain 24hr in | rain mn in | humidity % | barometer mb |
| 20260506183008 | 49 | 211 | 2.6 | 6.1 | 0.00 | 0.17 | 0.17 | 88 | 1003.0 |
| 20260506180008 | 50 | 205 | 0.0 | 4.3 | 0.00 | 0.17 | 0.17 | 87 | 1003.1 |
| 20260506173008 | 51 | 203 | 0.0 | 1.7 | 0.03 | 0.17 | 0.17 | 85 | 1003.2 |
| 20260506170009 | 50 | 203 | 0.0 | 6.1 | 0.07 | 0.17 | 0.17 | 85 | 1003.2 |
| 20260506163010 | 51 | 218 | 0.9 | 6.1 | 0.05 | 0.14 | 0.14 | 85 | 1003.4 |
| 20260506160009 | 53 | 231 | 0.9 | 4.3 | 0.01 | 0.10 | 0.10 | 84 | 1003.3 |
| 20260506153008 | 54 | 204 | 0.0 | 0.0 | 0.02 | 0.09 | 0.09 | 83 | 1003.2 |
| 20260506150008 | 53 | 95 | 0.0 | 0.0 | 0.05 | 0.09 | 0.09 | 83 | 1003.2 |
| 20260506143009 | 52 | 93 | 0.0 | 0.9 | 0.05 | 0.07 | 0.07 | 83 | 1003.5 |
| 20260506140009 | 51 | 138 | 0.0 | 0.9 | 0.03 | 0.04 | 0.04 | 84 | 1004.1 |
| 20260506133009 | 51 | 208 | 0.0 | 1.7 | 0.01 | 0.02 | 0.02 | 84 | 1004.1 |
| 20260506130009 | 51 | 173 | 0.0 | 0.0 | 0.00 | 0.01 | 0.01 | 84 | 1003.8 |
| 20260506123009 | 50 | 204 | 0.0 | 0.0 | 0.01 | 0.01 | 0.01 | 83 | 1003.8 |
| 20260506120009 | 50 | 204 | 0.0 | 0.0 | 0.01 | 0.01 | 0.01 | 84 | 1004.1 |
| 20260506113009 | 50 | 204 | 0.0 | 0.0 | 0.00 | 0.00 | 0.00 | 84 | 1004.7 |
| 20260506110009 | 66 | 198 | 0.0 | 0.0 | 0.00 | 0.00 | 0.00 | 47 | 1004.6 |
| 20260506103009 | 66 | 198 | 0.0 | 0.0 | 0.00 | 0.00 | 0.00 | 47 | 1004.5 |
| 20260506100009 | 66 | 198 | 0.0 | 0.0 | 0.00 | 0.00 | 0.00 | 47 | 1004.6 |
| 20260506093009 | 66 | 198 | 0.0 | 0.0 | 0.00 | 0.00 | 0.00 | 47 | 1004.5 |
| 20260506090009 | 66 | 198 | 0.0 | 0.0 | 0.00 | 0.00 | 0.00 | 47 | 1004.4 |
| 20260506083009 | 66 | 198 | 0.0 | 0.0 | 0.00 | 0.00 | 0.00 | 47 | 1004.6 |
| 20260506073009 | 66 | 198 | 0.0 | 0.0 | 0.00 | 0.00 | 0.00 | 47 | 1005.3 |
| 20260506043009 | 66 | 198 | 0.0 | 0.0 | 0.00 | 0.00 | 0.00 | 47 | 1006.6 |
| 20260506040009 | 66 | 198 | 0.0 | 0.0 | 0.00 | 0.00 | 0.00 | 47 | 1006.5 |
| 20260506033009 | 66 | 198 | 0.0 | 0.0 | 0.00 | 0.00 | 0.00 | 47 | 1006.5 |
| 20260506030009 | 66 | 198 | 0.0 | 0.0 | 0.00 | 0.00 | 0.00 | 47 | 1006.4 |
| 20260506023010 | 66 | 198 | 0.0 | 0.0 | 0.00 | 0.00 | 0.00 | 47 | 1006.5 |
| 20260506020010 | 66 | 198 | 0.0 | 0.0 | 0.00 | 0.00 | 0.00 | 47 | 1006.3 |
| 20260506013010 | 66 | 198 | 0.0 | 0.0 | 0.00 | 0.00 | 0.00 | 47 | 1006.0 |
| 20260506010010 | 66 | 198 | 0.0 | 0.0 | 0.00 | 0.00 | 0.00 | 47 | 1005.0 |
| 20260506003010 | 66 | 198 | 0.0 | 0.0 | 0.00 | 0.00 | 0.00 | 47 | 1004.1 |
| 20260506000011 | 66 | 198 | 0.0 | 0.0 | 0.00 | 0.00 | 0.00 | 47 | 1003.7 |
| 20260505233009 | 66 | 198 | 0.0 | 0.0 | 0.00 | 0.00 | 0.00 | 47 | 1002.9 |
| 20260505230010 | 66 | 198 | 0.0 | 0.0 | 0.00 | 0.00 | 0.00 | 47 | 1002.8 |
| 20260505223010 | 66 | 198 | 0.0 | 0.0 | 0.00 | 0.00 | 0.00 | 47 | 1002.6 |
| 20260505220010 | 66 | 198 | 0.0 | 0.0 | 0.00 | 0.00 | 0.00 | 47 | 1002.5 |
| 20260505213010 | 66 | 198 | 0.0 | 0.0 | 0.00 | 0.00 | 0.00 | 47 | 1002.8 |
| 20260505210010 | 66 | 198 | 0.0 | 0.0 | 0.00 | 0.00 | 0.00 | 47 | 1002.9 |
| 20260505203010 | 66 | 198 | 0.0 | 0.0 | 0.00 | 0.00 | 0.00 | 47 | 1002.9 |
| 20260505200010 | 66 | 198 | 0.0 | 0.0 | 0.00 | 0.00 | 0.00 | 47 | 1002.8 |
| 20260505193010 | 66 | 198 | 0.0 | 0.0 | 0.00 | 0.00 | 0.00 | 47 | 1001.1 |
| 20260505190010 | 66 | 198 | 0.0 | 0.0 | 0.00 | 0.00 | 0.00 | 47 | 1001.3 |